GEC8502 EKCH-EDDH
Flight info
| Callsign | GEC8502 |
|---|---|
| Flight time | 0h 30m |
| Altitude | 24000 |
| Route | NEXEN T503 MICOS N850 BOGMU BOGMU3P |
| Aircraft | B77L/H-SDE1E2E3FGHIJ2J3J4J5M1RWXY/LB1D1 |
Departure
| Time | 2026-04-26 15:51 |
|---|---|
| Airport | Copenhagen Kastrup Airport (EKCH) |
Arrival
| Time | 2026-04-26 16:22 |
|---|---|
| Airport | Hamburg Helmut Schmidt Airport (EDDH) |
| Time | Latitude | Longitude | Altitude | Speed | Heading |
|---|---|---|---|---|---|
| 2026-04-26 15:36 | 55.61874 | 12.67132 | 32 ft | 0 kts | 80° |
| 2026-04-26 15:40 | 55.61872 | 12.67114 | 32 ft | 2 kts | 80° |
| 2026-04-26 15:40 | 55.61870 | 12.67088 | 32 ft | 2 kts | 80° |
| 2026-04-26 15:41 | 55.61867 | 12.67062 | 32 ft | 2 kts | 80° |
| 2026-04-26 15:41 | 55.61865 | 12.67034 | 32 ft | 2 kts | 89° |
| 2026-04-26 15:41 | 55.61868 | 12.67003 | 32 ft | 2 kts | 115° |
| 2026-04-26 15:41 | 55.61877 | 12.66978 | 32 ft | 2 kts | 135° |
| 2026-04-26 15:42 | 55.61890 | 12.66960 | 32 ft | 2 kts | 157° |
| 2026-04-26 15:42 | 55.61900 | 12.66954 | 32 ft | 1 kts | 169° |
| 2026-04-26 15:42 | 55.61902 | 12.66953 | 32 ft | 0 kts | 169° |
| 2026-04-26 15:44 | 55.61832 | 12.66978 | 32 ft | 10 kts | 168° |
| 2026-04-26 15:44 | 55.61744 | 12.67009 | 32 ft | 14 kts | 169° |
| 2026-04-26 15:45 | 55.61499 | 12.67099 | 32 ft | 21 kts | 168° |
| 2026-04-26 15:45 | 55.61339 | 12.67113 | 29 ft | 25 kts | 200° |
| 2026-04-26 15:46 | 55.61401 | 12.66646 | 31 ft | 22 kts | 303° |
| 2026-04-26 15:46 | 55.61487 | 12.66420 | 32 ft | 22 kts | 304° |
| 2026-04-26 15:46 | 55.61574 | 12.66186 | 33 ft | 22 kts | 303° |
| 2026-04-26 15:46 | 55.61634 | 12.66025 | 33 ft | 23 kts | 304° |
| 2026-04-26 15:47 | 55.61754 | 12.65712 | 32 ft | 20 kts | 304° |
| 2026-04-26 15:47 | 55.61937 | 12.65227 | 31 ft | 23 kts | 303° |
| 2026-04-26 15:47 | 55.61998 | 12.64959 | 32 ft | 20 kts | 238° |
| 2026-04-26 15:48 | 55.61871 | 12.64791 | 32 ft | 21 kts | 213° |
| 2026-04-26 15:48 | 55.61748 | 12.64647 | 34 ft | 21 kts | 213° |
| 2026-04-26 15:48 | 55.61616 | 12.64495 | 33 ft | 23 kts | 213° |
| 2026-04-26 15:48 | 55.61472 | 12.64331 | 34 ft | 23 kts | 213° |
| 2026-04-26 15:49 | 55.61330 | 12.64170 | 34 ft | 25 kts | 214° |
| 2026-04-26 15:49 | 55.61175 | 12.63988 | 33 ft | 26 kts | 215° |
| 2026-04-26 15:49 | 55.61013 | 12.63802 | 31 ft | 28 kts | 214° |
| 2026-04-26 15:49 | 55.60842 | 12.63611 | 29 ft | 29 kts | 212° |
| 2026-04-26 15:50 | 55.60670 | 12.63407 | 29 ft | 29 kts | 217° |
| 2026-04-26 15:50 | 55.60519 | 12.63186 | 31 ft | 26 kts | 222° |
| 2026-04-26 15:50 | 55.60390 | 12.63197 | 31 ft | 18 kts | 134° |
| 2026-04-26 15:50 | 55.60353 | 12.63357 | 31 ft | 12 kts | 62° |
| 2026-04-26 15:51 | 55.60372 | 12.63395 | 31 ft | 8 kts | 42° |
| 2026-04-26 15:51 | 55.60640 | 12.63794 | 28 ft | 92 kts | 42° |
| 2026-04-26 15:51 | 55.61348 | 12.64898 | 35 ft | 166 kts | 39° |
| 2026-04-26 15:51 | 55.62290 | 12.66424 | 634 ft | 186 kts | 43° |
| 2026-04-26 15:52 | 55.63192 | 12.67948 | 1674 ft | 179 kts | 39° |
| 2026-04-26 15:52 | 55.64161 | 12.69358 | 2307 ft | 186 kts | 38° |
| 2026-04-26 15:52 | 55.65147 | 12.70844 | 2939 ft | 194 kts | 38° |
| 2026-04-26 15:52 | 55.65845 | 12.71883 | 3328 ft | 201 kts | 37° |
| 2026-04-26 15:53 | 55.67289 | 12.74008 | 4395 ft | 208 kts | 36° |
| 2026-04-26 15:53 | 55.68418 | 12.75684 | 4979 ft | 223 kts | 37° |
| 2026-04-26 15:53 | 55.69466 | 12.77760 | 5682 ft | 235 kts | 59° |
| 2026-04-26 15:53 | 55.69825 | 12.80601 | 6451 ft | 249 kts | 93° |
| 2026-04-26 15:54 | 55.69232 | 12.83500 | 7253 ft | 259 kts | 129° |
| 2026-04-26 15:54 | 55.67809 | 12.85368 | 7964 ft | 263 kts | 166° |
| 2026-04-26 15:54 | 55.66028 | 12.85483 | 8651 ft | 259 kts | 203° |
| 2026-04-26 15:54 | 55.64466 | 12.83884 | 9026 ft | 271 kts | 227° |
| 2026-04-26 15:55 | 55.63054 | 12.81604 | 9634 ft | 283 kts | 229° |
| 2026-04-26 15:55 | 55.61603 | 12.79207 | 10486 ft | 287 kts | 230° |
| 2026-04-26 15:55 | 55.60124 | 12.76755 | 11038 ft | 303 kts | 230° |
| 2026-04-26 15:55 | 55.58544 | 12.74139 | 11550 ft | 320 kts | 229° |
| 2026-04-26 15:56 | 55.56898 | 12.71416 | 12083 ft | 338 kts | 229° |
| 2026-04-26 15:56 | 55.55126 | 12.68494 | 12634 ft | 354 kts | 229° |
| 2026-04-26 15:56 | 55.53308 | 12.65504 | 13318 ft | 365 kts | 229° |
| 2026-04-26 15:56 | 55.51471 | 12.62495 | 14208 ft | 369 kts | 229° |
| 2026-04-26 15:57 | 55.49574 | 12.59394 | 15133 ft | 373 kts | 229° |
| 2026-04-26 15:57 | 55.47684 | 12.56310 | 16001 ft | 378 kts | 229° |
| 2026-04-26 15:57 | 55.45765 | 12.53184 | 16859 ft | 381 kts | 229° |
| 2026-04-26 15:57 | 55.44454 | 12.51052 | 17417 ft | 385 kts | 229° |
| 2026-04-26 15:58 | 55.41845 | 12.46814 | 18476 ft | 391 kts | 229° |
| 2026-04-26 15:58 | 55.39859 | 12.43595 | 19303 ft | 394 kts | 229° |
| 2026-04-26 15:58 | 55.37843 | 12.40334 | 20123 ft | 397 kts | 229° |
| 2026-04-26 15:58 | 55.35799 | 12.37034 | 20913 ft | 401 kts | 229° |
| 2026-04-26 15:59 | 55.33736 | 12.33709 | 21652 ft | 405 kts | 228° |
| 2026-04-26 15:59 | 55.31685 | 12.30409 | 22409 ft | 408 kts | 228° |
| 2026-04-26 15:59 | 55.29611 | 12.27080 | 23190 ft | 410 kts | 228° |
| 2026-04-26 15:59 | 55.27520 | 12.23732 | 23917 ft | 412 kts | 228° |
| 2026-04-26 16:00 | 55.25376 | 12.20304 | 24265 ft | 415 kts | 228° |
| 2026-04-26 16:00 | 55.23270 | 12.16950 | 24288 ft | 412 kts | 228° |
| 2026-04-26 16:00 | 55.21164 | 12.13609 | 24284 ft | 410 kts | 227° |
| 2026-04-26 16:00 | 55.18905 | 12.10451 | 24293 ft | 414 kts | 223° |
| 2026-04-26 16:01 | 55.16582 | 12.07461 | 24295 ft | 415 kts | 222° |
| 2026-04-26 16:01 | 55.14272 | 12.04507 | 24295 ft | 415 kts | 222° |
| 2026-04-26 16:01 | 55.11956 | 12.01549 | 24288 ft | 415 kts | 222° |
| 2026-04-26 16:01 | 55.09628 | 11.98581 | 24287 ft | 413 kts | 222° |
| 2026-04-26 16:02 | 55.07333 | 11.95657 | 24293 ft | 413 kts | 222° |
| 2026-04-26 16:02 | 55.05016 | 11.92709 | 24294 ft | 413 kts | 222° |
| 2026-04-26 16:02 | 55.02700 | 11.89768 | 24299 ft | 412 kts | 222° |
| 2026-04-26 16:02 | 55.01156 | 11.87810 | 24298 ft | 412 kts | 222° |
| 2026-04-26 16:03 | 54.98038 | 11.83855 | 24305 ft | 423 kts | 222° |
| 2026-04-26 16:03 | 54.95606 | 11.80770 | 24305 ft | 441 kts | 221° |
| 2026-04-26 16:03 | 54.93054 | 11.77539 | 24304 ft | 458 kts | 221° |
| 2026-04-26 16:03 | 54.90471 | 11.74280 | 24298 ft | 465 kts | 221° |
| 2026-04-26 16:04 | 54.87841 | 11.70972 | 24288 ft | 466 kts | 221° |
| 2026-04-26 16:04 | 54.85206 | 11.67665 | 24284 ft | 464 kts | 221° |
| 2026-04-26 16:04 | 54.82493 | 11.64263 | 24281 ft | 465 kts | 221° |
| 2026-04-26 16:04 | 54.79830 | 11.60931 | 24280 ft | 464 kts | 221° |
| 2026-04-26 16:05 | 54.77150 | 11.57581 | 24282 ft | 464 kts | 221° |
| 2026-04-26 16:05 | 54.74444 | 11.54204 | 24282 ft | 465 kts | 221° |
| 2026-04-26 16:05 | 54.71814 | 11.50927 | 24282 ft | 464 kts | 221° |
| 2026-04-26 16:05 | 54.69224 | 11.47706 | 24281 ft | 464 kts | 221° |
| 2026-04-26 16:06 | 54.66592 | 11.44437 | 24283 ft | 464 kts | 221° |
| 2026-04-26 16:06 | 54.64000 | 11.41221 | 24283 ft | 465 kts | 221° |
| 2026-04-26 16:06 | 54.61376 | 11.37973 | 24285 ft | 464 kts | 221° |
| 2026-04-26 16:06 | 54.58743 | 11.34718 | 24285 ft | 465 kts | 220° |
| 2026-04-26 16:07 | 54.56118 | 11.31479 | 24287 ft | 465 kts | 220° |
| 2026-04-26 16:07 | 54.53519 | 11.28294 | 24287 ft | 463 kts | 220° |
| 2026-04-26 16:07 | 54.50943 | 11.25165 | 24283 ft | 445 kts | 220° |
| 2026-04-26 16:07 | 54.48479 | 11.22180 | 24274 ft | 427 kts | 220° |
| 2026-04-26 16:08 | 54.46040 | 11.19224 | 23989 ft | 416 kts | 220° |
| 2026-04-26 16:08 | 54.44438 | 11.17281 | 23734 ft | 411 kts | 221° |
| 2026-04-26 16:08 | 54.41422 | 11.13402 | 23221 ft | 400 kts | 223° |
| 2026-04-26 16:08 | 54.39216 | 11.10517 | 22534 ft | 400 kts | 223° |
| 2026-04-26 16:09 | 54.37044 | 11.07680 | 21725 ft | 398 kts | 222° |
| 2026-04-26 16:09 | 54.34854 | 11.04825 | 20968 ft | 390 kts | 222° |
| 2026-04-26 16:09 | 54.32719 | 11.02046 | 20217 ft | 383 kts | 223° |
| 2026-04-26 16:09 | 54.30628 | 10.99329 | 19471 ft | 378 kts | 222° |
| 2026-04-26 16:10 | 54.28581 | 10.96671 | 18732 ft | 372 kts | 223° |
| 2026-04-26 16:10 | 54.26527 | 10.94009 | 17991 ft | 367 kts | 223° |
| 2026-04-26 16:10 | 54.24480 | 10.91358 | 17245 ft | 363 kts | 223° |
| 2026-04-26 16:10 | 54.22493 | 10.88786 | 16508 ft | 359 kts | 223° |
| 2026-04-26 16:11 | 54.20456 | 10.86155 | 15739 ft | 355 kts | 222° |
| 2026-04-26 16:11 | 54.18510 | 10.83644 | 15003 ft | 352 kts | 222° |
| 2026-04-26 16:11 | 54.16589 | 10.81168 | 14267 ft | 349 kts | 222° |
| 2026-04-26 16:11 | 54.14662 | 10.78687 | 13521 ft | 347 kts | 222° |
| 2026-04-26 16:12 | 54.12743 | 10.76218 | 12776 ft | 344 kts | 222° |
| 2026-04-26 16:12 | 54.10844 | 10.73780 | 12009 ft | 341 kts | 222° |
| 2026-04-26 16:12 | 54.07103 | 10.68984 | 10550 ft | 337 kts | 221° |
| 2026-04-26 16:13 | 54.05219 | 10.66573 | 9775 ft | 334 kts | 221° |
| 2026-04-26 16:13 | 54.03370 | 10.64209 | 9018 ft | 332 kts | 221° |
| 2026-04-26 16:13 | 54.01530 | 10.61859 | 8257 ft | 329 kts | 220° |
| 2026-04-26 16:13 | 53.99725 | 10.59558 | 7503 ft | 325 kts | 220° |
| 2026-04-26 16:14 | 53.97957 | 10.57309 | 7060 ft | 311 kts | 220° |
| 2026-04-26 16:14 | 53.96257 | 10.55151 | 7003 ft | 296 kts | 220° |
| 2026-04-26 16:14 | 53.93071 | 10.51112 | 7033 ft | 282 kts | 220° |
| 2026-04-26 16:15 | 53.91519 | 10.49145 | 7007 ft | 280 kts | 220° |
| 2026-04-26 16:15 | 53.89948 | 10.47156 | 6978 ft | 280 kts | 220° |
| 2026-04-26 16:15 | 53.88377 | 10.45169 | 7017 ft | 282 kts | 220° |
| 2026-04-26 16:16 | 53.85225 | 10.41192 | 6715 ft | 284 kts | 220° |
| 2026-04-26 16:16 | 53.83638 | 10.39198 | 6340 ft | 283 kts | 220° |
| 2026-04-26 16:16 | 53.82174 | 10.36972 | 5948 ft | 279 kts | 231° |
| 2026-04-26 16:16 | 53.80924 | 10.34542 | 5571 ft | 276 kts | 231° |
| 2026-04-26 16:17 | 53.79667 | 10.32082 | 5220 ft | 274 kts | 231° |
| 2026-04-26 16:17 | 53.78411 | 10.29629 | 4829 ft | 272 kts | 231° |
| 2026-04-26 16:17 | 53.77191 | 10.27248 | 4457 ft | 268 kts | 230° |
| 2026-04-26 16:17 | 53.75966 | 10.24859 | 4084 ft | 265 kts | 230° |
| 2026-04-26 16:18 | 53.74771 | 10.22518 | 3707 ft | 261 kts | 231° |
| 2026-04-26 16:18 | 53.72435 | 10.17882 | 2962 ft | 248 kts | 231° |
| 2026-04-26 16:19 | 53.70369 | 10.13714 | 2317 ft | 209 kts | 232° |
| 2026-04-26 16:19 | 53.69479 | 10.11895 | 2036 ft | 188 kts | 232° |
| 2026-04-26 16:19 | 53.68139 | 10.09163 | 1619 ft | 161 kts | 233° |
| 2026-04-26 16:20 | 53.67213 | 10.07281 | 1300 ft | 146 kts | 233° |
| 2026-04-26 16:20 | 53.65909 | 10.04639 | 859 ft | 143 kts | 232° |
| 2026-04-26 16:20 | 53.65274 | 10.03350 | 653 ft | 139 kts | 232° |
| 2026-04-26 16:21 | 53.64630 | 10.02044 | 425 ft | 141 kts | 233° |
| 2026-04-26 16:21 | 53.63997 | 10.00753 | 199 ft | 144 kts | 233° |
| 2026-04-26 16:21 | 53.63356 | 9.99484 | 93 ft | 143 kts | 231° |
| 2026-04-26 16:21 | 53.62773 | 9.98295 | 68 ft | 113 kts | 231° |
| 2026-04-26 16:22 | 53.62458 | 9.97660 | 68 ft | 33 kts | 231° |
| 2026-04-26 16:22 | 53.62335 | 9.97407 | 68 ft | 17 kts | 223° |
| 2026-04-26 16:22 | 53.62231 | 9.97389 | 68 ft | 15 kts | 150° |
| 2026-04-26 16:22 | 53.62180 | 9.97529 | 68 ft | 14 kts | 89° |
| 2026-04-26 16:23 | 53.62230 | 9.97691 | 68 ft | 16 kts | 50° |
| 2026-04-26 16:23 | 53.62310 | 9.97849 | 68 ft | 18 kts | 49° |
| 2026-04-26 16:23 | 53.62400 | 9.98029 | 68 ft | 19 kts | 51° |
| 2026-04-26 16:23 | 53.62464 | 9.98235 | 68 ft | 20 kts | 74° |
| 2026-04-26 16:24 | 53.62495 | 9.98500 | 68 ft | 22 kts | 79° |
| 2026-04-26 16:24 | 53.62528 | 9.98771 | 68 ft | 23 kts | 77° |
| 2026-04-26 16:24 | 53.62548 | 9.98939 | 68 ft | 11 kts | 80° |
| 2026-04-26 16:24 | 53.62563 | 9.99073 | 68 ft | 10 kts | 67° |
| 2026-04-26 16:25 | 53.62611 | 9.99108 | 68 ft | 6 kts | 346° |
| 2026-04-26 16:25 | 53.62644 | 9.99099 | 68 ft | 3 kts | 23° |
| 2026-04-26 16:25 | 53.62662 | 9.99128 | 68 ft | 3 kts | 51° |
| 2026-04-26 16:25 | 53.62677 | 9.99166 | 68 ft | 3 kts | 59° |
| 2026-04-26 16:26 | 53.62691 | 9.99205 | 68 ft | 3 kts | 62° |
| 2026-04-26 16:26 | 53.62694 | 9.99214 | 68 ft | 0 kts | 63° |